createdAt,value
2019-04-30T00:01:48.599Z,58.50
2019-04-30T00:04:25.387Z,52.08
2019-04-30T00:06:55.799Z,57.50
2019-04-30T00:09:26.747Z,50.78
2019-04-30T00:12:01.064Z,53.47
2019-04-30T00:14:32.490Z,53.02
2019-04-30T00:16:59.462Z,51.87
2019-04-30T00:19:28.853Z,52.90
2019-04-30T00:22:00.886Z,50.85
2019-04-30T00:24:31.614Z,49.27
2019-04-30T00:27:02.150Z,47.87
2019-04-30T00:29:31.560Z,57.27
2019-04-30T00:32:04.535Z,57.27
2019-04-30T00:34:35.885Z,52.90
2019-04-30T00:37:07.428Z,53.60
2019-04-30T00:39:35.893Z,55.60
2019-04-30T00:42:05.582Z,49.85
2019-04-30T00:44:36.510Z,53.20
2019-04-30T00:47:09.065Z,56.13
2019-04-30T00:49:38.570Z,52.03
2019-04-30T00:52:09.598Z,53.30
2019-04-30T00:54:40.223Z,57.83
2019-04-30T00:57:11.323Z,55.67
2019-04-30T00:59:44.651Z,53.70
2019-04-30T01:02:19.967Z,54.03
2019-04-30T01:04:48.756Z,47.93
2019-04-30T01:07:18.714Z,51.45
2019-04-30T01:09:49.858Z,51.77
2019-04-30T01:12:27.658Z,49.97
2019-04-30T01:14:51.139Z,50.60
2019-04-30T01:17:20.726Z,52.37
2019-04-30T01:19:54.280Z,49.27
2019-04-30T01:22:28.171Z,52.67
2019-04-30T01:24:56.542Z,57.17
2019-04-30T01:27:26.209Z,45.70
2019-04-30T01:29:58.491Z,50.70
2019-04-30T01:32:29.013Z,49.87
2019-04-30T01:34:59.016Z,47.10
2019-04-30T01:37:33.046Z,58.03
2019-04-30T01:40:10.580Z,52.20
2019-04-30T01:42:36.065Z,50.43
2019-04-30T01:45:08.754Z,51.57
2019-04-30T01:47:39.706Z,48.37
2019-04-30T01:50:09.339Z,52.47
2019-04-30T01:52:54.821Z,55.40
2019-04-30T01:55:34.487Z,50.45
2019-04-30T01:58:05.502Z,52.20
2019-04-30T02:00:37.112Z,54.20
2019-04-30T02:03:11.208Z,58.80
2019-04-30T02:05:40.782Z,56.40
2019-04-30T02:08:13.419Z,55.47
2019-04-30T02:10:43.460Z,54.60
2019-04-30T02:13:13.118Z,51.53
2019-04-30T02:15:42.803Z,56.98
2019-04-30T02:18:13.205Z,61.70
2019-04-30T02:20:45.350Z,65.80
2019-04-30T02:23:15.030Z,55.57
2019-04-30T02:25:44.840Z,55.00
2019-04-30T02:28:15.977Z,58.77
2019-04-30T02:30:45.368Z,52.27
2019-04-30T02:33:15.042Z,53.40
2019-04-30T02:35:52.250Z,58.25
2019-04-30T02:38:26.483Z,58.42
2019-04-30T02:40:59.604Z,54.90
2019-04-30T02:43:30.230Z,56.10
2019-04-30T02:46:00.173Z,59.47
2019-04-30T02:48:29.909Z,60.77
2019-04-30T02:51:01.170Z,52.10
2019-04-30T02:53:52.033Z,51.63
2019-04-30T02:56:26.536Z,50.95
2019-04-30T02:58:56.154Z,57.33
2019-04-30T03:01:26.185Z,59.83
2019-04-30T03:03:55.866Z,53.98
2019-04-30T03:06:25.225Z,60.83
2019-04-30T03:08:55.648Z,58.93
2019-04-30T03:11:25.164Z,56.40
2019-04-30T03:13:54.529Z,56.47
2019-04-30T03:16:30.322Z,56.03
2019-04-30T03:19:01.647Z,56.27
2019-04-30T03:21:49.990Z,58.37
2019-04-30T03:24:20.742Z,61.53
2019-04-30T03:26:51.761Z,58.33
2019-04-30T03:29:25.510Z,63.48
2019-04-30T03:31:55.030Z,59.83
2019-04-30T03:34:26.500Z,61.28
2019-04-30T03:37:01.664Z,58.50
2019-04-30T03:39:29.682Z,56.87
2019-04-30T03:41:59.828Z,60.10
2019-04-30T03:44:32.337Z,64.00
2019-04-30T03:47:01.423Z,55.50
2019-04-30T03:49:32.667Z,58.50
2019-04-30T03:52:02.159Z,57.10
2019-04-30T03:54:31.814Z,62.15
2019-04-30T03:57:02.602Z,66.00
2019-04-30T03:59:31.973Z,72.43
2019-04-30T04:02:20.868Z,54.67
2019-04-30T04:05:02.421Z,59.70
2019-04-30T04:07:34.909Z,58.00
2019-04-30T04:10:10.265Z,64.67
2019-04-30T04:12:40.142Z,64.93
2019-04-30T04:15:10.706Z,60.97
2019-04-30T04:17:43.424Z,59.17
2019-04-30T04:20:13.377Z,61.00
2019-04-30T04:22:43.875Z,60.08
2019-04-30T04:25:13.537Z,57.80
2019-04-30T04:27:44.158Z,62.27
2019-04-30T04:30:15.514Z,55.10
2019-04-30T04:32:50.093Z,59.93
2019-04-30T04:35:19.974Z,54.13
2019-04-30T04:37:51.868Z,60.20
2019-04-30T04:40:23.792Z,54.30
2019-04-30T04:42:53.188Z,62.77
2019-04-30T04:45:22.576Z,65.80
2019-04-30T04:47:52.472Z,65.30
2019-04-30T04:50:24.510Z,63.87
2019-04-30T04:52:55.015Z,65.93
2019-04-30T04:55:24.404Z,73.67
2019-04-30T04:57:54.108Z,72.95
2019-04-30T05:00:23.504Z,73.25
2019-04-30T05:02:55.362Z,79.07
2019-04-30T05:05:25.004Z,75.32
2019-04-30T05:07:54.516Z,70.93
2019-04-30T05:10:26.099Z,78.67
2019-04-30T05:12:59.286Z,75.17
2019-04-30T05:15:29.522Z,72.97
2019-04-30T05:17:59.340Z,77.17
2019-04-30T05:20:29.545Z,79.80
2019-04-30T05:23:00.300Z,90.00
2019-04-30T05:25:29.723Z,82.03
2019-04-30T05:27:59.197Z,86.13
2019-04-30T05:30:30.278Z,90.30
2019-04-30T05:32:59.696Z,76.13
2019-04-30T05:35:31.002Z,87.90
2019-04-30T05:38:00.580Z,76.03
2019-04-30T05:40:30.914Z,87.27
2019-04-30T05:43:00.490Z,82.87
2019-04-30T05:45:30.365Z,82.33
2019-04-30T05:47:59.776Z,73.70
2019-04-30T05:50:29.750Z,79.20
2019-04-30T05:53:03.448Z,78.17
2019-04-30T05:55:32.831Z,84.77
2019-04-30T05:58:04.440Z,81.40
2019-04-30T06:00:33.828Z,80.47
2019-04-30T06:03:03.347Z,80.60
2019-04-30T06:05:33.827Z,66.10
2019-04-30T06:08:06.040Z,72.30
2019-04-30T06:10:42.150Z,71.65
2019-04-30T06:13:16.113Z,70.07
2019-04-30T06:15:53.031Z,78.00
2019-04-30T06:18:22.703Z,63.75
2019-04-30T06:20:52.324Z,65.90
2019-04-30T06:23:21.694Z,55.95
2019-04-30T06:25:59.315Z,50.87
2019-04-30T06:28:23.765Z,49.63
2019-04-30T06:30:54.613Z,51.20
2019-04-30T06:33:24.304Z,48.55
2019-04-30T06:35:54.627Z,44.57
2019-04-30T06:38:26.043Z,44.93
2019-04-30T06:40:55.494Z,47.53
2019-04-30T06:43:24.875Z,42.13
2019-04-30T06:45:54.609Z,45.63
2019-04-30T06:48:29.391Z,44.23
2019-04-30T06:50:59.782Z,46.00
2019-04-30T06:53:29.411Z,43.00
2019-04-30T06:55:59.210Z,40.97
2019-04-30T06:58:29.222Z,43.80
2019-04-30T07:00:59.582Z,44.57
2019-04-30T07:03:29.617Z,44.98
2019-04-30T07:06:03.247Z,45.33
2019-04-30T07:08:47.136Z,45.43
2019-04-30T07:11:21.722Z,42.20
2019-04-30T07:13:52.581Z,45.43
2019-04-30T07:16:23.642Z,42.93
2019-04-30T07:18:53.331Z,42.73
2019-04-30T07:21:26.203Z,46.13
2019-04-30T07:23:55.820Z,45.60
2019-04-30T07:26:25.760Z,46.13
2019-04-30T07:28:55.676Z,49.90
2019-04-30T07:31:25.464Z,46.35
2019-04-30T07:33:54.838Z,43.03
2019-04-30T07:36:42.427Z,42.73
2019-04-30T07:38:57.032Z,41.10
2019-04-30T07:44:01.075Z,42.33
2019-04-30T07:46:35.114Z,43.63
2019-04-30T07:49:04.730Z,41.70
2019-04-30T07:51:40.252Z,40.65
2019-04-30T07:54:09.292Z,38.27
2019-04-30T07:56:41.732Z,40.70
2019-04-30T07:59:12.004Z,34.10
2019-04-30T08:02:00.568Z,36.27
2019-04-30T08:04:19.602Z,41.00
2019-04-30T08:06:51.504Z,39.00
2019-04-30T08:09:22.704Z,36.10
2019-04-30T08:09:38.317Z,41.75
2019-04-30T08:11:52.090Z,35.67
2019-04-30T08:14:24.487Z,34.15
2019-04-30T08:16:52.912Z,33.13
2019-04-30T08:19:22.858Z,36.48
2019-04-30T08:21:55.084Z,37.53
2019-04-30T08:24:29.209Z,36.53
2019-04-30T08:27:01.306Z,39.40
2019-04-30T08:29:33.951Z,35.83
2019-04-30T08:32:03.618Z,34.33
2019-04-30T08:34:35.345Z,35.50
2019-04-30T08:37:16.684Z,36.00
2019-04-30T08:39:36.195Z,33.00
2019-04-30T08:42:05.959Z,31.17
2019-04-30T08:44:36.880Z,32.50
2019-04-30T08:47:06.241Z,37.13
2019-04-30T08:49:36.250Z,34.43
2019-04-30T08:52:06.186Z,29.60
2019-04-30T08:54:35.917Z,32.10
2019-04-30T08:57:06.186Z,31.42
2019-04-30T08:59:39.491Z,35.40
2019-04-30T09:02:15.944Z,32.07
2019-04-30T09:04:40.873Z,30.57
2019-04-30T09:07:12.374Z,27.77
2019-04-30T09:09:44.698Z,28.97
2019-04-30T09:12:16.107Z,29.90
2019-04-30T09:14:49.021Z,28.53
2019-04-30T09:17:21.925Z,31.93
2019-04-30T09:19:51.653Z,29.90
2019-04-30T09:22:22.325Z,28.83
2019-04-30T09:24:51.910Z,29.30
2019-04-30T09:27:22.747Z,26.33
2019-04-30T09:29:52.165Z,28.70
2019-04-30T09:32:22.168Z,30.02
2019-04-30T09:34:53.494Z,27.40
2019-04-30T09:37:24.929Z,27.40
2019-04-30T09:39:54.346Z,29.17
2019-04-30T09:42:24.050Z,26.45
2019-04-30T09:44:57.253Z,25.80
2019-04-30T09:47:29.550Z,28.80
2019-04-30T09:50:00.015Z,27.53
2019-04-30T09:52:31.704Z,28.40
2019-04-30T09:55:02.206Z,29.07
2019-04-30T09:57:31.953Z,27.93
2019-04-30T10:00:01.643Z,26.60
2019-04-30T10:02:32.851Z,27.63
2019-04-30T10:05:02.944Z,28.40
2019-04-30T10:07:34.099Z,30.82
2019-04-30T10:10:08.865Z,31.07
2019-04-30T10:12:39.152Z,26.60
2019-04-30T10:15:13.712Z,28.17
2019-04-30T10:17:50.930Z,26.77
2019-04-30T10:20:26.075Z,29.12
2019-04-30T10:22:57.002Z,28.93
2019-04-30T10:25:28.277Z,29.60
2019-04-30T10:27:59.829Z,27.83
2019-04-30T10:30:33.023Z,27.60
2019-04-30T10:33:02.415Z,27.17
2019-04-30T10:35:32.961Z,26.37
2019-04-30T10:38:03.468Z,26.80
2019-04-30T10:40:33.058Z,29.00
2019-04-30T10:43:02.503Z,30.63
2019-04-30T10:45:32.061Z,24.33
2019-04-30T10:48:02.989Z,26.37
2019-04-30T10:50:32.354Z,27.60
2019-04-30T10:53:02.612Z,26.12
2019-04-30T10:55:33.625Z,24.70
2019-04-30T10:58:03.149Z,22.60
2019-04-30T11:00:38.954Z,25.67
2019-04-30T11:03:19.598Z,26.27
2019-04-30T11:05:41.261Z,22.27
2019-04-30T11:08:13.062Z,24.27
2019-04-30T11:10:44.133Z,25.40
2019-04-30T11:13:14.204Z,24.13
2019-04-30T11:15:44.541Z,27.15
2019-04-30T11:18:14.563Z,24.87
2019-04-30T11:20:44.976Z,23.57
2019-04-30T11:23:15.239Z,22.90
2019-04-30T11:25:45.400Z,21.93
2019-04-30T11:28:15.893Z,21.47
2019-04-30T11:30:46.254Z,19.30
2019-04-30T11:33:17.153Z,21.63
2019-04-30T11:35:47.016Z,21.05
2019-04-30T11:38:20.391Z,20.08
2019-04-30T11:40:49.026Z,20.12
2019-04-30T11:43:20.185Z,20.90
2019-04-30T11:45:55.717Z,18.63
2019-04-30T11:48:26.809Z,18.45
2019-04-30T11:50:59.523Z,19.57
2019-04-30T11:53:30.684Z,19.17
2019-04-30T11:56:00.472Z,16.83
2019-04-30T11:58:30.589Z,15.88
2019-04-30T12:01:02.618Z,16.20
2019-04-30T12:03:33.912Z,17.27
2019-04-30T12:06:04.821Z,15.27
2019-04-30T12:08:52.574Z,16.07
2019-04-30T12:11:42.270Z,16.77
2019-04-30T12:14:12.557Z,17.05
2019-04-30T12:16:43.198Z,14.98
2019-04-30T12:19:12.655Z,16.47
2019-04-30T12:21:42.173Z,16.17
2019-04-30T12:24:12.534Z,17.90
2019-04-30T12:51:45.838Z,13.65
2019-04-30T12:54:14.230Z,15.00
2019-04-30T12:56:51.272Z,15.27
2019-04-30T12:59:21.303Z,14.98
2019-04-30T13:01:50.662Z,15.33
2019-04-30T13:04:20.591Z,14.43
2019-04-30T13:06:51.054Z,13.70
2019-04-30T13:09:21.446Z,12.03
2019-04-30T13:11:52.078Z,12.73
2019-04-30T13:14:22.885Z,12.70
2019-04-30T13:16:52.731Z,13.83
2019-04-30T13:19:22.986Z,14.18
2019-04-30T13:21:52.354Z,13.53
2019-04-30T13:24:22.472Z,14.80
2019-04-30T13:26:51.864Z,13.67
2019-04-30T13:29:25.860Z,14.50
2019-04-30T13:31:58.246Z,14.03
2019-04-30T13:34:45.647Z,15.87
2019-04-30T13:37:15.283Z,15.23
2019-04-30T13:39:55.261Z,14.37
2019-04-30T13:42:35.337Z,16.25
2019-04-30T13:45:07.076Z,15.60
2019-04-30T13:47:36.437Z,14.80
2019-04-30T13:50:06.511Z,16.60
2019-04-30T13:52:35.875Z,16.27
2019-04-30T13:55:10.721Z,16.47
2019-04-30T13:57:38.722Z,16.27
2019-04-30T14:00:11.964Z,14.23
2019-04-30T14:02:44.794Z,15.97
2019-04-30T14:05:16.380Z,15.77
2019-04-30T14:07:56.421Z,15.67
2019-04-30T14:10:25.802Z,16.27
2019-04-30T14:12:57.000Z,17.30
2019-04-30T14:15:26.752Z,17.17
2019-04-30T14:17:56.629Z,18.50
2019-04-30T14:20:26.668Z,16.50
2019-04-30T14:22:57.546Z,18.40
2019-04-30T14:25:26.992Z,19.93
2019-04-30T14:27:56.459Z,18.27
2019-04-30T14:30:26.373Z,18.67
2019-04-30T14:32:55.738Z,19.07
2019-04-30T14:35:25.122Z,18.10
2019-04-30T14:37:54.514Z,18.80
2019-04-30T14:40:24.782Z,16.83
2019-04-30T14:42:59.751Z,19.40
2019-04-30T14:45:40.628Z,18.30
2019-04-30T14:48:12.917Z,19.53
2019-04-30T14:50:42.831Z,20.20
2019-04-30T14:53:14.480Z,17.98
2019-04-30T14:55:49.549Z,18.73
2019-04-30T14:58:29.546Z,18.27
2019-04-30T15:01:06.168Z,19.07
2019-04-30T15:03:36.598Z,17.03
2019-04-30T15:06:05.993Z,17.10
2019-04-30T15:08:36.598Z,18.63
2019-04-30T15:11:05.984Z,17.73
2019-04-30T15:13:35.587Z,17.57
2019-04-30T15:16:35.358Z,18.20
2019-04-30T15:19:04.864Z,16.50
2019-04-30T15:21:34.524Z,16.40
2019-04-30T15:24:21.610Z,16.93
2019-04-30T15:26:57.573Z,18.90
2019-04-30T15:29:23.129Z,20.50
2019-04-30T15:31:52.758Z,17.90
2019-04-30T15:34:22.731Z,19.57
2019-04-30T15:36:52.114Z,19.23
2019-04-30T15:39:26.654Z,19.17
2019-04-30T15:41:56.019Z,20.10
2019-04-30T15:44:25.931Z,19.07
2019-04-30T15:46:55.782Z,20.60
2019-04-30T15:49:25.429Z,22.23
2019-04-30T15:51:54.827Z,20.00
2019-04-30T15:54:24.511Z,19.70
2019-04-30T15:56:53.911Z,19.30
2019-04-30T15:59:24.979Z,20.40
2019-04-30T16:01:56.435Z,20.20
2019-04-30T16:04:44.556Z,21.87
2019-04-30T16:07:14.087Z,20.13
2019-04-30T16:09:51.633Z,21.37
2019-04-30T16:12:22.667Z,22.37
2019-04-30T16:14:52.045Z,22.50
2019-04-30T16:17:23.467Z,22.45
2019-04-30T16:19:52.867Z,19.60
2019-04-30T16:22:22.337Z,21.33
2019-04-30T16:24:54.443Z,21.10
2019-04-30T16:27:22.863Z,22.23
2019-04-30T16:29:52.257Z,21.20
2019-04-30T16:32:24.639Z,20.33
2019-04-30T16:34:54.019Z,22.90
2019-04-30T16:37:23.687Z,21.48
2019-04-30T16:39:53.088Z,22.90
2019-04-30T16:42:22.712Z,22.93
2019-04-30T16:44:52.097Z,23.73
2019-04-30T16:47:21.775Z,22.67
2019-04-30T16:49:51.183Z,23.23
2019-04-30T16:52:21.202Z,23.62
2019-04-30T16:54:50.804Z,23.13
2019-04-30T16:57:20.514Z,23.17
2019-04-30T16:59:51.032Z,22.50
2019-04-30T17:02:22.698Z,23.38
2019-04-30T17:04:56.126Z,26.77
2019-04-30T17:07:30.212Z,22.90
2019-04-30T17:10:09.021Z,23.37
2019-04-30T17:12:43.293Z,22.67
2019-04-30T17:15:14.912Z,24.00
2019-04-30T17:17:44.296Z,21.43
2019-04-30T17:20:14.612Z,22.50
2019-04-30T17:22:43.987Z,22.67
2019-04-30T17:25:13.745Z,21.70
2019-04-30T17:27:43.386Z,21.80
2019-04-30T17:30:13.649Z,19.20
2019-04-30T17:32:43.021Z,23.50
2019-04-30T17:35:13.390Z,22.98
2019-04-30T17:37:43.001Z,22.17
2019-04-30T17:40:13.323Z,22.65
2019-04-30T17:42:42.952Z,22.70
2019-04-30T17:45:13.453Z,25.35
2019-04-30T17:47:43.297Z,22.87
2019-04-30T17:50:13.770Z,25.55
2019-04-30T17:52:43.158Z,26.93
2019-04-30T17:55:13.616Z,28.75
2019-04-30T17:57:43.006Z,28.27
2019-04-30T18:00:19.998Z,25.60
2019-04-30T18:02:46.490Z,27.50
2019-04-30T18:05:16.275Z,25.30
2019-04-30T18:07:45.916Z,27.62
2019-04-30T18:10:17.037Z,26.90
2019-04-30T18:12:46.436Z,25.80
2019-04-30T18:15:17.933Z,26.87
2019-04-30T18:17:49.034Z,26.87
2019-04-30T18:20:36.712Z,26.33
2019-04-30T18:23:24.314Z,29.40
2019-04-30T18:26:01.424Z,29.60
2019-04-30T18:28:31.098Z,25.60
2019-04-30T18:31:00.485Z,27.83
2019-04-30T18:33:30.066Z,27.80
2019-04-30T18:35:59.731Z,28.07
2019-04-30T18:38:31.131Z,29.63
2019-04-30T18:41:00.596Z,27.97
2019-04-30T18:43:30.160Z,27.27
2019-04-30T18:46:00.683Z,26.97
2019-04-30T18:48:30.384Z,27.03
2019-04-30T18:51:00.027Z,29.00
2019-04-30T18:53:31.346Z,27.40
2019-04-30T18:56:01.293Z,26.63
2019-04-30T18:58:39.210Z,26.87
2019-04-30T19:01:02.305Z,24.07
2019-04-30T19:03:32.020Z,26.00
2019-04-30T19:06:03.060Z,26.93
2019-04-30T19:08:50.023Z,26.23
2019-04-30T19:11:30.716Z,26.80
2019-04-30T19:14:09.422Z,26.27
2019-04-30T19:16:46.613Z,27.43
2019-04-30T19:19:19.554Z,26.27
2019-04-30T19:21:49.223Z,24.70
2019-04-30T19:24:19.715Z,25.95
2019-04-30T19:26:50.362Z,25.43
2019-04-30T19:29:20.032Z,25.90
2019-04-30T19:31:49.533Z,25.20
2019-04-30T19:34:19.169Z,27.17
2019-04-30T19:36:49.225Z,25.33
2019-04-30T19:39:20.093Z,26.23
2019-04-30T19:41:50.539Z,25.50
2019-04-30T19:44:21.092Z,24.20
2019-04-30T19:46:50.876Z,25.52
2019-04-30T19:49:20.581Z,26.97
2019-04-30T19:51:53.137Z,27.30
2019-04-30T19:54:22.527Z,25.57
2019-04-30T19:56:52.071Z,28.37
2019-04-30T19:59:21.431Z,28.53
2019-04-30T20:01:50.994Z,28.83
2019-04-30T20:04:32.796Z,27.73
2019-04-30T20:06:52.169Z,28.32
2019-04-30T20:09:21.908Z,27.93
2019-04-30T20:11:51.403Z,32.50
2019-04-30T20:14:21.055Z,31.67
2019-04-30T20:16:50.428Z,30.70
2019-04-30T20:19:20.145Z,27.97
2019-04-30T20:21:53.668Z,33.03
2019-04-30T20:24:21.256Z,30.60
2019-04-30T20:26:58.277Z,32.05
2019-04-30T20:29:22.318Z,31.23
2019-04-30T20:31:52.051Z,28.83
2019-04-30T20:34:21.437Z,28.90
2019-04-30T20:36:51.116Z,28.85
2019-04-30T20:39:23.445Z,32.40
2019-04-30T20:41:53.382Z,30.30
2019-04-30T20:44:23.078Z,32.93
2019-04-30T20:46:52.461Z,30.63
2019-04-30T20:49:21.852Z,31.30
2019-04-30T20:51:55.246Z,33.30
2019-04-30T20:54:22.656Z,33.67
2019-04-30T20:56:52.143Z,29.93
2019-04-30T20:59:21.538Z,33.80
2019-04-30T21:01:51.101Z,32.43
2019-04-30T21:04:21.049Z,38.57
2019-04-30T21:06:50.775Z,38.33
2019-04-30T21:09:20.507Z,36.05
2019-04-30T21:11:50.211Z,37.57
2019-04-30T21:14:19.610Z,35.53
2019-04-30T21:16:49.163Z,35.37
2019-04-30T21:19:18.839Z,38.90
2019-04-30T21:21:49.714Z,36.57
2019-04-30T21:24:19.484Z,38.77
2019-04-30T21:26:49.450Z,36.50
2019-04-30T21:29:19.813Z,42.90
2019-04-30T21:32:03.195Z,39.63
2019-04-30T21:34:34.225Z,42.50
2019-04-30T21:37:03.603Z,40.87
2019-04-30T21:39:33.588Z,42.90
2019-04-30T21:42:03.275Z,44.53
2019-04-30T21:44:32.675Z,41.50
2019-04-30T21:47:03.245Z,41.80
2019-04-30T21:49:32.626Z,41.60
2019-04-30T21:52:02.307Z,40.63
2019-04-30T21:54:31.706Z,40.27
2019-04-30T21:57:01.387Z,44.40
2019-04-30T21:59:30.750Z,40.13
2019-04-30T22:02:00.330Z,41.40
2019-04-30T22:04:29.714Z,39.90
2019-04-30T22:06:59.598Z,39.10
2019-04-30T22:09:29.639Z,39.38
2019-04-30T22:11:59.351Z,37.47
2019-04-30T22:14:29.025Z,42.37
2019-04-30T22:16:59.381Z,43.60
2019-04-30T22:19:28.958Z,41.02
2019-04-30T22:21:59.475Z,39.83
2019-04-30T22:24:30.508Z,40.30
2019-04-30T22:27:01.351Z,39.45
2019-04-30T22:29:39.093Z,40.60
2019-04-30T22:32:01.887Z,40.00
2019-04-30T22:34:31.319Z,43.63
2019-04-30T22:37:00.689Z,39.53
2019-04-30T22:39:32.013Z,40.70
2019-04-30T22:42:20.710Z,40.07
2019-04-30T22:44:50.454Z,38.77
2019-04-30T22:47:19.824Z,35.47
2019-04-30T22:49:49.434Z,45.33
2019-04-30T22:52:21.782Z,39.43
2019-04-30T22:54:50.539Z,40.17
2019-04-30T22:57:19.903Z,40.87
2019-04-30T22:59:50.254Z,40.70
2019-04-30T23:02:30.084Z,41.83
2019-04-30T23:05:01.058Z,43.30
2019-04-30T23:07:31.499Z,46.93
2019-04-30T23:10:00.896Z,43.40
2019-04-30T23:12:30.518Z,50.30
2019-04-30T23:14:59.912Z,46.57
2019-04-30T23:17:29.581Z,43.77
2019-04-30T23:19:58.984Z,42.03
2019-04-30T23:22:28.673Z,47.20
2019-04-30T23:24:58.059Z,44.87
2019-04-30T23:27:27.755Z,44.80
2019-04-30T23:30:03.448Z,43.80
2019-04-30T23:32:28.524Z,45.60
2019-04-30T23:34:57.904Z,46.00
2019-04-30T23:37:28.102Z,43.78
2019-04-30T23:40:01.212Z,43.67
2019-04-30T23:42:30.588Z,43.40
2019-04-30T23:44:59.989Z,42.03
2019-04-30T23:47:29.481Z,42.20
2019-04-30T23:49:58.884Z,42.20
2019-04-30T23:52:28.262Z,42.30
2019-04-30T23:54:58.047Z,45.03
2019-04-30T23:57:27.729Z,45.05
2019-04-30T23:59:57.439Z,44.60
